Time;durP1;ratioP1;P1;durP2;ratioP2;P2;SDS_P1;SDS_P2;PMS_P1;PMS_P2;Temp;Humidity;BMP_temperature;BMP_pressure;BME280_temperature;BME280_humidity;BME280_pressure;Samples;Min_cycle;Max_cycle;Signal;HPM_P1;HPM_P2
2023/04/30 00:01:38;;;;;;;16.05;14.60;;;;;;;9.47;75.16;102207.25;5092414;28;20019;-58
2023/04/30 00:04:04;;;;;;;16.27;14.68;;;;;;;9.50;75.31;102201.81;5092554;28;20379;-58
2023/04/30 00:06:30;;;;;;;16.38;14.88;;;;;;;9.43;75.43;102202.97;5093190;28;20107;-58
2023/04/30 00:08:55;;;;;;;16.40;14.85;;;;;;;9.46;75.59;102197.56;5093627;28;20016;-58
2023/04/30 00:11:20;;;;;;;17.40;15.57;;;;;;;9.48;75.27;102201.88;5091862;28;20118;-58
2023/04/30 00:13:46;;;;;;;17.90;16.05;;;;;;;9.43;75.44;102197.66;5093714;28;20027;-58
2023/04/30 00:16:13;;;;;;;17.02;15.25;;;;;;;9.28;76.14;102202.59;5093794;28;20048;-58
2023/04/30 00:18:39;;;;;;;17.35;15.80;;;;;;;9.29;75.90;102195.50;5093833;28;20024;-58
2023/04/30 00:21:04;;;;;;;18.58;15.98;;;;;;;9.19;76.31;102184.34;5093194;28;20463;-58
2023/04/30 00:23:30;;;;;;;16.65;15.05;;;;;;;9.31;76.35;102202.50;5093235;28;20055;-58
2023/04/30 00:25:55;;;;;;;18.10;16.15;;;;;;;9.26;76.78;102206.22;5093088;28;20028;-58
2023/04/30 00:28:20;;;;;;;17.48;15.75;;;;;;;9.24;76.93;102208.09;5091956;28;20096;-58
2023/04/30 00:30:46;;;;;;;24.95;22.20;;;;;;;9.15;77.87;102200.44;5093473;28;20028;-58
2023/04/30 00:33:12;;;;;;;20.15;18.10;;;;;;;9.17;77.81;102215.38;5092261;28;20032;-58
2023/04/30 00:35:37;;;;;;;17.73;15.95;;;;;;;9.27;77.45;102211.50;5093256;28;20027;-58
2023/04/30 00:38:02;;;;;;;24.95;22.45;;;;;;;9.24;77.69;102201.00;5092807;28;20031;-58
2023/04/30 00:40:28;;;;;;;20.35;18.33;;;;;;;9.25;77.84;102197.41;5093103;28;20027;-58
2023/04/30 00:42:54;;;;;;;17.77;15.63;;;;;;;9.27;77.83;102198.22;5093039;28;20905;-58
2023/04/30 00:45:21;;;;;;;17.45;15.27;;;;;;;9.31;78.28;102204.28;5091798;28;20097;-58
2023/04/30 00:47:47;;;;;;;27.35;22.25;;;;;;;9.32;78.12;102204.25;5091488;28;20036;-58
2023/04/30 00:50:14;;;;;;;20.08;18.00;;;;;;;9.17;78.74;102210.06;5093221;28;20024;-58
2023/04/30 00:52:41;;;;;;;18.60;16.80;;;;;;;9.27;78.57;102207.97;5092572;28;20414;-58
2023/04/30 00:55:07;;;;;;;17.23;15.48;;;;;;;9.15;78.79;102206.63;5090248;28;20036;-58
2023/04/30 00:57:34;;;;;;;17.55;15.73;;;;;;;9.19;78.91;102205.59;5092546;28;20034;-58
2023/04/30 01:00:00;;;;;;;18.10;16.13;;;;;;;9.04;79.31;102198.16;5091442;28;20030;-58
2023/04/30 01:02:26;;;;;;;17.15;15.07;;;;;;;8.93;79.59;102203.84;5091298;28;20028;-58
2023/04/30 01:04:51;;;;;;;18.02;16.23;;;;;;;9.05;79.90;102202.53;5092676;28;20032;-58
2023/04/30 01:07:17;;;;;;;17.13;14.95;;;;;;;9.08;79.58;102197.13;5090804;28;20028;-58
2023/04/30 01:09:43;;;;;;;17.75;15.82;;;;;;;9.07;79.40;102190.09;5090945;28;20074;-58
2023/04/30 01:12:17;;;;;;;18.60;16.48;;;;;;;9.01;79.88;102196.50;5091864;28;20035;-58
2023/04/30 01:15:01;;;;;;;16.38;14.85;;;;;;;9.06;79.91;102188.38;5092306;28;20106;-59
2023/04/30 01:17:32;;;;;;;17.35;15.73;;;;;;;8.76;80.91;102190.28;5098848;28;20080;-58
2023/04/30 01:20:02;;;;;;;16.90;15.30;;;;;;;8.80;80.98;102184.84;5109257;28;20032;-58
2023/04/30 01:22:27;;;;;;;;;;;;;;;9.12;78.83;102192.56;5100057;28;20390;-58
2023/04/30 01:25:18;;;;;;;17.10;15.60;;;;;;;8.94;80.57;102197.63;5092282;28;19916;-58
2023/04/30 01:28:08;;;;;;;18.17;16.40;;;;;;;8.96;80.76;102197.56;5091928;28;20024;-58
2023/04/30 01:30:34;;;;;;;18.08;16.17;;;;;;;8.76;81.10;102192.94;5092341;28;20028;-58
2023/04/30 01:33:00;;;;;;;17.85;16.15;;;;;;;8.61;81.82;102192.53;5100853;28;20031;-58
2023/04/30 01:35:53;;;;;;;18.02;16.13;;;;;;;8.63;82.27;102197.78;5110748;28;20118;-58
2023/04/30 01:38:27;;;;;;;16.88;15.32;;;;;;;8.73;81.24;102196.56;5103654;28;20020;-58
2023/04/30 01:41:00;;;;;;;18.63;16.83;;;;;;;8.58;82.09;102182.03;5090895;28;20156;-58
2023/04/30 01:43:37;;;;;;;18.27;16.45;;;;;;;8.59;82.26;102197.03;5092050;28;20084;-58
2023/04/30 01:46:18;;;;;;;17.65;15.85;;;;;;;8.59;82.27;102193.53;5091951;28;20495;-58
2023/04/30 01:49:41;;;;;;;16.63;15.05;;;;;;;8.70;81.99;102195.78;5091983;28;20103;-58
2023/04/30 01:52:21;;;;;;;18.08;16.20;;;;;;;8.51;82.41;102199.06;5091694;28;20044;-58
2023/04/30 01:54:51;;;;;;;18.55;16.85;;;;;;;8.27;82.58;102191.88;5106211;28;20038;-58
2023/04/30 01:57:28;;;;;;;17.00;15.60;;;;;;;8.38;83.11;102193.31;5111247;28;20027;-58
2023/04/30 01:59:54;;;;;;;17.80;16.02;;;;;;;8.34;82.64;102196.91;5111170;28;20023;-58
2023/04/30 02:02:20;;;;;;;18.33;16.58;;;;;;;8.36;83.05;102199.53;5111249;28;20027;-58
2023/04/30 02:04:45;;;;;;;17.67;15.75;;;;;;;8.20;82.44;102156.72;5109333;28;20038;-58
2023/04/30 02:07:19;;;;;;;18.15;16.35;;;;;;;8.33;82.45;102205.78;5110218;28;20032;-58
2023/04/30 02:09:45;;;;;;;16.92;15.48;;;;;;;8.28;82.61;102204.19;5110777;28;20035;-58
2023/04/30 02:12:10;;;;;;;17.05;15.50;;;;;;;8.34;82.34;102201.34;5109745;28;20390;-58
2023/04/30 02:14:35;;;;;;;17.95;16.23;;;;;;;8.13;83.15;102195.81;5110975;28;20027;-58
2023/04/30 02:17:01;;;;;;;17.98;16.25;;;;;;;8.27;82.90;102199.81;5110598;28;20027;-58
2023/04/30 02:19:26;;;;;;;17.70;16.20;;;;;;;8.37;82.55;102201.25;5110910;28;20107;-58
2023/04/30 02:21:52;;;;;;;17.85;16.25;;;;;;;8.24;82.54;102203.44;5105456;28;20056;-58
2023/04/30 02:24:17;;;;;;;18.67;16.77;;;;;;;8.13;82.79;102203.75;5097122;28;20058;-58
2023/04/30 02:26:42;;;;;;;18.15;16.52;;;;;;;8.16;83.67;102200.16;5111467;28;20035;-58
2023/04/30 02:29:08;;;;;;;18.95;17.17;;;;;;;8.02;83.92;102210.31;5114244;28;20027;-58
2023/04/30 02:31:33;;;;;;;18.58;16.88;;;;;;;8.01;83.64;102204.16;5115221;28;20030;-58
2023/04/30 02:33:58;;;;;;;18.38;16.58;;;;;;;7.93;84.10;102198.19;5114769;28;20070;-58
2023/04/30 02:36:24;;;;;;;18.35;16.55;;;;;;;7.94;84.86;102206.13;5113884;28;20028;-58
2023/04/30 02:38:49;;;;;;;18.05;16.55;;;;;;;8.00;84.77;102204.19;5096745;28;20026;-58
2023/04/30 02:41:17;;;;;;;18.15;16.40;;;;;;;7.97;83.91;102206.03;5112914;28;20138;-58
2023/04/30 02:43:45;;;;;;;16.75;14.68;;;;;;;8.04;83.98;102196.09;5114306;28;20088;-58
2023/04/30 02:46:10;;;;;;;19.55;17.77;;;;;;;7.86;84.59;102205.47;5109212;28;20035;-58
2023/04/30 02:48:36;;;;;;;19.55;17.75;;;;;;;8.02;84.47;102202.34;5110074;28;20027;-58
2023/04/30 02:51:01;;;;;;;20.05;18.02;;;;;;;7.82;84.90;102195.88;5103937;28;20111;-58
2023/04/30 02:53:26;;;;;;;20.52;18.65;;;;;;;7.86;85.05;102202.81;5095269;28;20036;-58
2023/04/30 02:55:52;;;;;;;20.15;18.20;;;;;;;8.00;84.36;102210.38;5095201;28;20095;-58
2023/04/30 02:58:19;;;;;;;19.65;17.60;;;;;;;7.91;83.91;102208.88;5093645;28;20035;-58
2023/04/30 03:00:45;;;;;;;18.08;16.48;;;;;;;7.82;83.91;102192.34;5094980;28;20031;-58
2023/04/30 03:03:10;;;;;;;16.83;15.10;;;;;;;8.03;83.25;102198.78;5093981;28;20395;-58
2023/04/30 03:05:38;;;;;;;21.60;19.45;;;;;;;7.76;84.66;102196.06;5093625;28;20035;-58
2023/04/30 03:08:04;;;;;;;20.35;18.25;;;;;;;7.67;85.67;102197.19;5094449;28;20482;-58
2023/04/30 03:10:31;;;;;;;18.23;16.30;;;;;;;7.90;85.20;102193.00;5095090;28;20031;-58
2023/04/30 03:12:59;;;;;;;19.08;16.88;;;;;;;7.93;85.62;102190.25;5094760;28;20028;-58
2023/04/30 03:15:25;;;;;;;20.08;18.00;;;;;;;7.79;85.99;102182.72;5093350;28;20028;-58
2023/04/30 03:17:51;;;;;;;20.33;18.48;;;;;;;7.60;85.74;102189.50;5092949;28;20024;-58
2023/04/30 03:20:17;;;;;;;19.80;18.00;;;;;;;7.76;84.79;102184.59;5093460;28;20105;-58
2023/04/30 03:22:42;;;;;;;17.40;15.73;;;;;;;7.77;85.15;102189.00;5094116;28;20028;-58
2023/04/30 03:25:09;;;;;;;19.73;17.85;;;;;;;7.80;84.74;102188.91;5093446;28;20495;-58
2023/04/30 03:27:36;;;;;;;19.50;17.70;;;;;;;7.72;84.96;102190.00;5094316;28;20028;-58
2023/04/30 03:30:02;;;;;;;17.52;13.95;;;;;;;7.79;84.53;102182.72;5093309;28;20119;-58
2023/04/30 03:32:27;;;;;;;19.13;17.42;;;;;;;7.57;84.62;102186.94;5094248;28;20438;-58
2023/04/30 03:34:53;;;;;;;17.65;14.88;;;;;;;7.72;84.48;102183.81;5093536;28;20546;-58
2023/04/30 03:37:18;;;;;;;18.98;17.27;;;;;;;7.62;84.52;102183.25;5093942;28;20403;-58
2023/04/30 03:39:43;;;;;;;16.50;14.80;;;;;;;7.63;85.11;102190.25;5093004;28;20097;-58
2023/04/30 03:42:09;;;;;;;19.98;18.02;;;;;;;7.44;85.14;102184.66;5092921;28;20024;-58
2023/04/30 03:44:34;;;;;;;17.65;15.07;;;;;;;7.54;85.48;102187.88;5094452;28;20020;-58
2023/04/30 03:47:00;;;;;;;19.98;18.20;;;;;;;7.44;84.85;102192.59;5092544;28;20024;-58
2023/04/30 03:49:27;;;;;;;16.15;14.50;;;;;;;7.54;85.41;102189.66;5094258;28;20053;-58
2023/04/30 03:51:52;;;;;;;19.75;17.85;;;;;;;7.39;85.76;102193.63;5095512;28;20395;-58
2023/04/30 03:54:18;;;;;;;16.48;14.77;;;;;;;7.42;85.51;102189.09;5094073;28;20031;-58
2023/04/30 03:56:43;;;;;;;19.95;18.15;;;;;;;7.42;84.81;102198.81;5096963;28;20035;-58
2023/04/30 03:59:09;;;;;;;18.77;17.08;;;;;;;7.39;85.08;102197.13;5094225;28;20020;-58
2023/04/30 04:01:34;;;;;;;18.17;16.48;;;;;;;7.44;84.84;102203.16;5093692;28;20016;-58
2023/04/30 04:04:00;;;;;;;15.80;14.15;;;;;;;7.46;85.22;102203.09;5092642;28;20020;-58
2023/04/30 04:06:28;;;;;;;17.30;15.27;;;;;;;7.35;86.10;102210.47;5093574;28;20024;-58
2023/04/30 04:08:53;;;;;;;17.83;15.27;;;;;;;7.22;86.32;102208.16;5093564;28;20024;-58
2023/04/30 04:11:19;;;;;;;20.38;16.48;;;;;;;7.21;87.17;102210.88;5092503;28;20379;-58
2023/04/30 04:13:45;;;;;;;20.67;18.85;;;;;;;6.95;87.70;102211.56;5093534;28;20046;-58
2023/04/30 04:16:10;;;;;;;18.92;16.65;;;;;;;7.11;88.21;102212.00;5092307;28;20028;-58
2023/04/30 04:18:36;;;;;;;19.40;16.15;;;;;;;7.06;88.48;102201.56;5092227;28;20489;-58
2023/04/30 04:21:01;;;;;;;21.33;18.17;;;;;;;7.16;89.31;102203.06;5092985;28;20028;-58
2023/04/30 04:23:26;;;;;;;18.63;16.70;;;;;;;7.23;88.99;102212.53;5093231;28;20463;-58
2023/04/30 04:25:52;;;;;;;23.95;21.63;;;;;;;7.26;89.45;102216.88;5091769;28;20035;-58
2023/04/30 04:28:18;;;;;;;22.02;18.85;;;;;;;7.21;90.00;102224.97;5091977;28;20034;-58
2023/04/30 04:30:44;;;;;;;18.88;17.10;;;;;;;7.30;88.67;102213.28;5093029;28;20395;-58
2023/04/30 04:33:10;;;;;;;21.10;17.55;;;;;;;7.36;88.77;102218.38;5093453;28;20028;-58
2023/04/30 04:35:38;;;;;;;23.50;21.23;;;;;;;7.31;89.11;102217.63;5093380;28;20407;-58
2023/04/30 04:38:03;;;;;;;23.15;21.00;;;;;;;7.27;88.87;102218.66;5092748;28;20028;-58
2023/04/30 04:40:29;;;;;;;21.17;17.60;;;;;;;7.36;88.48;102221.03;5093202;28;20042;-58
2023/04/30 04:42:55;;;;;;;19.80;17.10;;;;;;;7.43;88.36;102227.03;5091503;28;20396;-58
2023/04/30 04:45:20;;;;;;;17.80;15.95;;;;;;;7.42;88.26;102228.81;5091644;28;20583;-58
2023/04/30 04:47:46;;;;;;;20.58;15.38;;;;;;;7.43;88.67;102230.53;5090263;28;20024;-58
2023/04/30 04:50:13;;;;;;;18.98;16.98;;;;;;;7.46;88.94;102230.44;5091723;28;20395;-58
2023/04/30 04:52:38;;;;;;;22.95;20.60;;;;;;;7.28;88.90;102221.22;5091092;28;20028;-58
2023/04/30 04:55:04;;;;;;;22.77;19.40;;;;;;;7.39;89.25;102234.19;5092980;28;20040;-58
2023/04/30 04:57:30;;;;;;;19.20;16.02;;;;;;;7.50;88.79;102233.91;5091676;28;20024;-58
2023/04/30 04:59:56;;;;;;;23.10;20.90;;;;;;;7.43;89.43;102227.88;5091839;28;20039;-58
2023/04/30 05:02:22;;;;;;;18.15;16.05;;;;;;;7.49;89.08;102230.34;5094850;28;20042;-58
2023/04/30 05:04:50;;;;;;;19.80;15.90;;;;;;;7.59;89.39;102233.63;5092714;28;20042;-58
2023/04/30 05:07:17;;;;;;;24.08;21.80;;;;;;;7.39;89.93;102230.69;5090805;28;20031;-58
2023/04/30 05:09:46;;;;;;;23.60;21.50;;;;;;;7.58;89.83;102220.44;5103894;28;20023;-58
2023/04/30 05:12:12;;;;;;;22.33;20.00;;;;;;;7.56;89.86;102223.13;5107283;28;20069;-58
2023/04/30 05:14:37;;;;;;;19.63;16.40;;;;;;;7.68;89.69;102228.06;5092515;28;20020;-58
2023/04/30 05:17:05;;;;;;;25.08;22.63;;;;;;;7.61;90.26;102221.19;5096466;28;20019;-58
2023/04/30 05:19:31;;;;;;;24.38;22.10;;;;;;;7.61;90.64;102225.63;5111393;28;20108;-58
2023/04/30 05:21:57;;;;;;;24.90;22.65;;;;;;;7.62;90.68;102222.97;5106720;28;20469;-58
2023/04/30 05:24:22;;;;;;;18.80;15.63;;;;;;;7.76;90.71;102222.53;5090803;28;20040;-58
2023/04/30 05:26:48;;;;;;;21.77;19.70;;;;;;;7.74;91.31;102222.59;5092080;28;20024;-58
2023/04/30 05:29:15;;;;;;;18.17;16.25;;;;;;;7.89;89.95;102223.94;5090632;28;20110;-58
2023/04/30 05:31:41;;;;;;;23.25;21.00;;;;;;;7.87;90.08;102216.94;5092313;28;20050;-58
2023/04/30 05:34:07;;;;;;;21.08;18.85;;;;;;;7.95;90.20;102221.09;5094034;28;20051;-58
2023/04/30 05:36:32;;;;;;;19.38;17.38;;;;;;;8.02;90.03;102223.56;5090136;28;20030;-58
2023/04/30 05:38:58;;;;;;;23.60;21.33;;;;;;;8.03;89.77;102226.16;5092155;28;20073;-58
2023/04/30 05:41:23;;;;;;;23.25;21.23;;;;;;;8.09;89.95;102228.63;5090698;28;20056;-58
2023/04/30 05:43:48;;;;;;;19.42;17.38;;;;;;;8.19;89.67;102231.84;5091796;28;20012;-58
2023/04/30 05:46:14;;;;;;;22.38;20.15;;;;;;;8.24;89.18;102227.28;5091946;28;20485;-58
2023/04/30 05:48:39;;;;;;;22.25;20.13;;;;;;;8.31;88.71;102215.56;5092215;28;20051;-58
2023/04/30 05:51:09;;;;;;;21.98;19.70;;;;;;;8.44;88.57;102220.50;5089841;28;20062;-58
2023/04/30 05:53:37;;;;;;;17.83;15.95;;;;;;;8.59;88.49;102226.19;5092060;28;20035;-58
2023/04/30 05:56:02;;;;;;;21.67;19.60;;;;;;;8.67;87.12;102236.53;5091899;28;20085;-58
2023/04/30 05:58:27;;;;;;;21.63;19.58;;;;;;;8.64;87.22;102231.34;5091439;28;20383;-58
2023/04/30 06:00:53;;;;;;;21.25;19.20;;;;;;;8.79;86.76;102237.91;5091963;28;20059;-58
2023/04/30 06:03:19;;;;;;;16.42;14.70;;;;;;;8.94;86.33;102228.59;5090588;28;20023;-58
2023/04/30 06:05:45;;;;;;;21.10;19.10;;;;;;;8.95;86.41;102231.19;5091660;28;20031;-58
2023/04/30 06:08:11;;;;;;;20.30;18.40;;;;;;;9.00;85.29;102226.59;5091487;28;20036;-58
2023/04/30 06:10:37;;;;;;;19.95;18.05;;;;;;;9.10;85.27;102230.66;5090536;28;20356;-58
2023/04/30 06:13:03;;;;;;;19.85;18.00;;;;;;;9.25;84.52;102225.75;5091498;28;20039;-58
2023/04/30 06:15:28;;;;;;;21.02;18.85;;;;;;;9.36;84.58;102228.03;5091847;28;20020;-58
2023/04/30 06:17:54;;;;;;;18.40;16.42;;;;;;;9.28;83.48;102231.81;5090543;28;20020;-58
2023/04/30 06:20:19;;;;;;;18.55;16.83;;;;;;;9.47;83.09;102221.41;5091495;28;20104;-62
2023/04/30 06:22:45;;;;;;;20.02;18.13;;;;;;;9.50;82.56;102225.72;5090989;28;20028;-58
2023/04/30 06:25:10;;;;;;;18.55;16.85;;;;;;;9.58;83.19;102221.00;5091508;28;20196;-58
2023/04/30 06:27:36;;;;;;;18.83;17.15;;;;;;;9.67;82.24;102223.31;5091138;28;20031;-59
2023/04/30 06:30:01;;;;;;;18.50;16.70;;;;;;;9.74;82.08;102216.00;5090212;28;20432;-58
2023/04/30 06:32:27;;;;;;;20.38;18.40;;;;;;;9.82;81.85;102224.53;5091444;28;20035;-58
2023/04/30 06:34:52;;;;;;;18.40;16.65;;;;;;;9.96;80.80;102213.38;5091525;28;20032;-58
2023/04/30 06:37:17;;;;;;;18.67;17.17;;;;;;;10.00;80.41;102221.19;5099215;28;20032;-58
2023/04/30 06:39:43;;;;;;;18.80;17.05;;;;;;;10.17;80.83;102227.63;5105618;28;20019;-58
2023/04/30 06:42:11;;;;;;;18.70;16.83;;;;;;;10.24;79.88;102226.47;5100383;28;20020;-58
2023/04/30 06:44:36;;;;;;;20.02;18.00;;;;;;;10.39;79.52;102223.22;5104956;28;20110;-58
2023/04/30 06:47:02;;;;;;;19.55;17.63;;;;;;;10.50;79.27;102222.81;5091305;28;20140;-58
2023/04/30 06:49:29;;;;;;;18.17;16.58;;;;;;;10.61;78.16;102225.00;5091177;28;20092;-58
2023/04/30 06:51:57;;;;;;;19.27;17.27;;;;;;;10.64;78.13;102228.41;5090729;28;20395;-58
2023/04/30 06:54:23;;;;;;;18.65;16.95;;;;;;;10.63;77.53;102224.03;5091421;28;20563;-58
2023/04/30 06:56:50;;;;;;;18.50;16.80;;;;;;;10.84;77.28;102232.03;5091074;28;20102;-58
2023/04/30 06:59:16;;;;;;;19.02;17.23;;;;;;;10.94;76.90;102235.19;5091274;28;20501;-58
2023/04/30 07:01:42;;;;;;;18.52;16.80;;;;;;;11.02;77.31;102227.72;5090056;28;20024;-58
2023/04/30 07:04:07;;;;;;;20.17;18.10;;;;;;;11.02;75.79;102233.06;5090126;28;20028;-58
2023/04/30 07:06:33;;;;;;;19.33;17.35;;;;;;;11.03;75.75;102225.03;5090920;28;20024;-58
2023/04/30 07:08:58;;;;;;;19.05;17.15;;;;;;;11.23;75.41;102237.44;5091339;28;20459;-58
2023/04/30 07:11:23;;;;;;;19.08;17.27;;;;;;;11.27;75.45;102235.53;5094131;28;20028;-58
2023/04/30 07:13:49;;;;;;;19.15;17.45;;;;;;;11.46;74.51;102239.13;5094646;28;20458;-58
2023/04/30 07:16:15;;;;;;;18.65;16.92;;;;;;;11.45;73.85;102234.72;5105368;28;20112;-58
2023/04/30 07:18:41;;;;;;;19.05;17.13;;;;;;;11.60;73.81;102226.03;5107550;28;20153;-58
2023/04/30 07:21:10;;;;;;;18.25;16.45;;;;;;;11.57;73.49;102235.97;5113376;28;20076;-59
2023/04/30 07:23:35;;;;;;;18.17;16.58;;;;;;;11.81;73.63;102234.84;5109794;28;20043;-58
2023/04/30 07:26:03;;;;;;;18.80;17.00;;;;;;;12.00;73.67;102237.59;5114522;28;20030;-58
2023/04/30 07:28:31;;;;;;;18.55;16.95;;;;;;;12.00;73.85;102229.59;5114854;28;20123;-58
2023/04/30 07:30:59;;;;;;;17.98;16.17;;;;;;;12.09;72.96;102230.06;5114632;28;20892;-58
2023/04/30 07:33:24;;;;;;;18.75;16.95;;;;;;;12.17;73.63;102223.44;5113359;28;20032;-59
2023/04/30 07:35:50;;;;;;;17.75;16.05;;;;;;;12.36;71.59;102220.75;5113621;28;20118;-59
2023/04/30 07:38:18;;;;;;;18.38;16.60;;;;;;;12.46;72.08;102223.84;5114391;28;20412;-58
2023/04/30 07:40:43;;;;;;;17.90;16.13;;;;;;;12.62;71.43;102223.97;5110578;28;20038;-58
2023/04/30 07:43:09;;;;;;;17.75;16.17;;;;;;;12.73;70.97;102224.28;5114645;28;20123;-59
2023/04/30 07:45:34;;;;;;;18.92;17.13;;;;;;;12.76;69.67;102216.09;5112811;28;20051;-58
2023/04/30 07:48:00;;;;;;;17.75;16.05;;;;;;;12.88;69.11;102223.53;5106120;28;20127;-58
2023/04/30 07:50:27;;;;;;;16.98;15.18;;;;;;;13.01;69.01;102221.06;5114437;28;20050;-58
2023/04/30 07:52:52;;;;;;;17.85;16.02;;;;;;;12.99;69.20;102224.75;5113834;28;20024;-58
2023/04/30 07:55:18;;;;;;;16.60;14.98;;;;;;;13.17;69.02;102223.81;5112963;28;20033;-58
2023/04/30 07:57:46;;;;;;;17.35;15.65;;;;;;;13.12;66.93;102228.56;5110535;28;20133;-58
2023/04/30 08:00:13;;;;;;;16.50;15.02;;;;;;;13.10;67.14;102222.41;5113122;28;20490;-59
2023/04/30 08:02:38;;;;;;;18.33;15.88;;;;;;;13.33;67.15;102222.13;5112891;28;20032;-59
2023/04/30 08:05:04;;;;;;;17.67;15.93;;;;;;;13.50;67.67;102231.03;5109126;28;20124;-59
2023/04/30 08:07:30;;;;;;;17.48;15.70;;;;;;;13.62;66.21;102231.25;5086819;28;20023;-59
2023/04/30 08:09:55;;;;;;;17.02;15.35;;;;;;;13.76;65.53;102229.63;5119622;27;20023;-58
2023/04/30 08:12:20;;;;;;;16.70;15.10;;;;;;;13.66;65.11;102221.25;5092408;28;20016;-59
2023/04/30 08:14:48;;;;;;;15.90;14.40;;;;;;;13.77;66.25;102226.03;5093573;28;20107;-58
2023/04/30 08:17:13;;;;;;;15.68;14.27;;;;;;;14.09;65.01;102229.63;5093627;28;20521;-59
2023/04/30 08:19:39;;;;;;;16.17;14.77;;;;;;;14.20;64.04;102229.00;5100967;28;20023;-58
2023/04/30 08:22:04;;;;;;;15.38;13.88;;;;;;;14.41;63.15;102224.22;5113016;28;20102;-59
2023/04/30 08:24:30;;;;;;;15.52;13.68;;;;;;;14.49;62.64;102225.53;5108416;28;20043;-58
2023/04/30 08:26:55;;;;;;;14.48;12.98;;;;;;;14.59;61.13;102227.69;5106903;28;20036;-59
2023/04/30 08:29:20;;;;;;;15.18;13.68;;;;;;;14.66;61.01;102232.63;5113493;28;20062;-59
2023/04/30 08:31:46;;;;;;;14.13;12.88;;;;;;;14.51;60.90;102231.69;5112168;28;20062;-58
2023/04/30 08:34:11;;;;;;;12.80;11.60;;;;;;;14.80;60.30;102229.16;5109740;28;20470;-59
2023/04/30 08:36:37;;;;;;;13.55;12.25;;;;;;;14.62;59.81;102230.19;5111375;28;20024;-58
2023/04/30 08:39:04;;;;;;;14.38;13.07;;;;;;;14.80;59.90;102223.78;5113308;28;20019;-58
2023/04/30 08:41:33;;;;;;;14.50;13.10;;;;;;;14.98;60.38;102228.06;5113410;28;20493;-58
2023/04/30 08:44:02;;;;;;;15.45;14.05;;;;;;;15.07;60.41;102226.63;5102756;28;20038;-59
2023/04/30 08:46:31;;;;;;;12.88;11.80;;;;;;;15.20;57.99;102224.94;5097044;28;20012;-58
2023/04/30 08:48:56;;;;;;;13.55;12.25;;;;;;;15.38;58.60;102233.69;5091663;28;20463;-59
2023/04/30 08:51:24;;;;;;;13.75;12.23;;;;;;;15.44;59.01;102224.38;5091045;28;20039;-58
2023/04/30 08:53:53;;;;;;;14.63;13.32;;;;;;;15.60;58.09;102222.50;5095174;28;20032;-58
2023/04/30 08:56:20;;;;;;;14.88;13.52;;;;;;;15.76;57.99;102224.25;5112307;28;20035;-58
2023/04/30 08:58:45;;;;;;;14.73;13.35;;;;;;;15.80;56.13;102220.44;5109597;28;20028;-58
2023/04/30 09:01:10;;;;;;;14.60;13.13;;;;;;;15.77;55.64;102217.94;5113185;28;20030;-59
2023/04/30 09:03:36;;;;;;;12.90;11.77;;;;;;;15.71;56.00;102215.66;5113124;28;20025;-58
2023/04/30 09:06:02;;;;;;;13.82;12.52;;;;;;;16.04;57.36;102212.63;5100524;28;20482;-59
2023/04/30 09:08:49;;;;;;;13.48;12.18;;;;;;;16.11;58.40;102200.53;5109232;28;20055;-59
2023/04/30 09:11:21;;;;;;;14.65;13.32;;;;;;;16.13;57.59;102212.03;5099446;28;20593;-59
2023/04/30 09:13:49;;;;;;;14.25;12.95;;;;;;;16.26;58.12;102204.88;5092329;28;20035;-59
2023/04/30 09:16:17;;;;;;;14.68;13.27;;;;;;;16.42;57.15;102195.84;5096198;28;20118;-59
2023/04/30 09:18:42;;;;;;;14.00;12.65;;;;;;;16.63;58.09;102212.34;5091348;28;20023;-59
2023/04/30 09:21:08;;;;;;;13.77;12.45;;;;;;;16.74;55.99;102210.69;5089844;28;20063;-59
2023/04/30 09:23:33;;;;;;;12.80;11.70;;;;;;;16.87;55.61;102210.72;5097364;28;20027;-59
2023/04/30 09:26:01;;;;;;;13.60;12.23;;;;;;;16.94;55.75;102211.16;5091330;28;20142;-59
2023/04/30 09:28:28;;;;;;;13.75;12.38;;;;;;;16.68;55.44;102208.41;5093045;28;20047;-59
2023/04/30 09:30:56;;;;;;;12.05;11.07;;;;;;;16.52;56.36;102207.69;5085899;28;20020;-59
2023/04/30 09:33:21;;;;;;;13.88;10.65;;;;;;;16.68;54.95;102213.78;5085776;28;20081;-59
2023/04/30 09:35:48;;;;;;;11.45;10.35;;;;;;;16.90;53.61;102215.91;5097325;28;20032;-59
2023/04/30 09:38:30;;;;;;;14.52;11.77;;;;;;;17.11;54.56;102213.56;5097066;28;20019;-59
2023/04/30 09:40:58;;;;;;;12.90;11.63;;;;;;;17.21;54.56;102208.44;5093141;28;20513;-59
2023/04/30 09:43:24;;;;;;;12.43;11.13;;;;;;;17.32;53.54;102211.22;5094219;28;20092;-59
2023/04/30 09:45:50;;;;;;;13.55;12.13;;;;;;;17.42;52.98;102208.75;5095623;28;20541;-59
2023/04/30 09:48:17;;;;;;;13.68;12.52;;;;;;;17.51;54.67;102205.41;5091382;28;20024;-59
2023/04/30 09:50:43;;;;;;;14.35;12.90;;;;;;;17.60;53.35;102211.97;5093653;28;20466;-59
2023/04/30 09:53:13;;;;;;;13.85;12.55;;;;;;;17.46;53.13;102207.56;5088758;28;20035;-59
2023/04/30 09:55:42;;;;;;;14.70;12.45;;;;;;;17.49;55.13;102208.19;5097116;28;20027;-59
2023/04/30 09:58:09;;;;;;;13.32;12.02;;;;;;;17.58;55.00;102197.75;5111201;28;20027;-59
2023/04/30 10:00:38;;;;;;;12.82;11.73;;;;;;;17.59;53.42;102203.03;5111078;28;20023;-59
2023/04/30 10:03:13;;;;;;;12.15;11.05;;;;;;;17.76;54.11;102209.03;5112091;28;20389;-59
2023/04/30 10:05:47;;;;;;;12.15;11.15;;;;;;;17.98;52.96;102208.41;5112213;28;20026;-59
2023/04/30 10:08:19;;;;;;;12.30;11.20;;;;;;;18.01;51.92;102205.47;5111824;28;20095;-60
2023/04/30 10:10:48;;;;;;;12.30;11.18;;;;;;;17.98;51.11;102198.47;5110924;28;20475;-59
2023/04/30 10:13:17;;;;;;;11.90;10.80;;;;;;;17.98;51.69;102198.47;5112156;28;20359;-59
2023/04/30 10:15:50;;;;;;;12.52;11.43;;;;;;;17.79;53.35;102192.69;5111952;28;20274;-61
2023/04/30 10:18:26;;;;;;;11.88;10.77;;;;;;;17.77;52.49;102194.63;5112113;28;20095;-59
2023/04/30 10:20:54;;;;;;;12.98;11.77;;;;;;;17.79;52.70;102196.25;5110819;28;20110;-59
2023/04/30 10:23:20;;;;;;;10.95;10.00;;;;;;;17.74;52.02;102193.00;5111617;28;20030;-59
2023/04/30 10:25:47;;;;;;;13.65;12.35;;;;;;;17.62;52.38;102181.31;5110502;28;20043;-59
2023/04/30 10:28:13;;;;;;;13.88;11.77;;;;;;;17.91;51.92;102187.31;5110429;28;20032;-59
2023/04/30 10:30:40;;;;;;;11.82;10.82;;;;;;;17.83;51.05;102189.69;5112063;28;20097;-59
2023/04/30 10:33:24;;;;;;;10.93;9.98;;;;;;;18.24;53.88;102179.56;5110083;28;20466;-59
2023/04/30 10:35:57;;;;;;;11.07;9.98;;;;;;;18.39;51.14;102167.63;5111555;28;20024;-59
2023/04/30 10:38:26;;;;;;;11.57;10.38;;;;;;;18.79;49.38;102173.56;5110424;28;20024;-59
2023/04/30 10:40:56;;;;;;;11.00;9.93;;;;;;;18.80;48.94;102166.34;5111502;28;20023;-59
2023/04/30 10:43:26;;;;;;;12.40;10.00;;;;;;;18.89;48.23;102165.66;5112040;28;20020;-59
2023/04/30 10:45:51;;;;;;;;;;;;;;;19.40;49.49;102164.38;5112157;28;20030;-59
2023/04/30 10:48:24;;;;;;;9.45;8.57;;;;;;;19.43;48.42;102161.41;5095166;28;20355;-59
2023/04/30 10:50:52;;;;;;;8.90;8.18;;;;;;;19.73;47.43;102158.97;5095240;28;20027;-59
2023/04/30 10:53:19;;;;;;;9.32;8.43;;;;;;;19.73;45.12;102156.28;5093685;28;20386;-59
2023/04/30 10:55:53;;;;;;;8.95;8.05;;;;;;;19.62;46.29;102148.19;5094122;28;20024;-59
2023/04/30 10:58:35;;;;;;;7.70;7.10;;;;;;;19.72;44.60;102151.03;5095253;28;20090;-59
2023/04/30 11:01:03;;;;;;;8.48;7.68;;;;;;;19.74;45.48;102149.06;5093831;28;20032;-59
2023/04/30 11:03:30;;;;;;;8.82;7.93;;;;;;;19.88;44.10;102135.31;5094945;28;20390;-59
2023/04/30 11:05:55;;;;;;;8.82;8.02;;;;;;;19.95;44.49;102131.09;5094813;28;20103;-59
2023/04/30 11:08:37;;;;;;;8.52;7.63;;;;;;;20.05;45.28;102133.88;5094827;28;20119;-59
2023/04/30 11:11:04;;;;;;;8.10;7.40;;;;;;;20.16;42.98;102131.16;5095237;28;20039;-59
2023/04/30 11:13:46;;;;;;;7.60;7.00;;;;;;;20.08;43.44;102121.97;5094975;28;20546;-59
2023/04/30 11:16:11;;;;;;;7.45;6.75;;;;;;;20.13;42.51;102126.00;5093623;28;20491;-59